To NAV CANADA Home Page Login to a new session Search on AWWS site Feedback and Comments Disclaimer Vers la page française équivalente Tips FAQ What's new on the site To the Forecasts and Observations / NOTAM section To "File a Flight Plan" website Publications and other links Update of the User's profile FIC Telephone Numbers My Weather Data Folder Route Weather Data Regional Weather Data Local Weather Data To the Forecasts and Observations / NOTAM section
Request Generated 06/26/2017 at 03:31:36 UTC . Weather information available at that time is displayed.

METAR/TAF

DEASE LAKE/BC    (show WxCam)

METAR CYDL 260300Z AUTO VRB04KT 8SM -RA SCT043 OVC055 11/09 A2985 RMK
LTNG DIST N NE S SLP113 DENSITY ALT 2800FT=
SPECI CYDL 260253Z AUTO VRB04KT 6SM -RA BR BKN045 OVC055 11/09 A2985
RMK LTNG DIST N S SLP114 DENSITY ALT 2800FT=
SPECI CYDL 260248Z AUTO 27004KT 210V330 5SM RA OVC050 11/08 A2984 RMK
LTNG DIST NE SLP112 DENSITY ALT 2800FT=
SPECI CYDL 260212Z AUTO 23008G18KT 180V290 9SM -RA OVC075 15/07 A2983
RMK LTNG DIST S PRESRR SLP104 DENSITY ALT 3200FT=
SPECI CYDL 260206Z AUTO 25011G18KT 180V280 9SM -RA VCTS OVC075 15/05
A2981 RMK LTNG DIST S SLP097 DENSITY ALT 3300FT=
METAR CYDL 260200Z AUTO 23011KT 180V250 9SM VCTS BKN075 16/07 A2980
RMK SLP094 DENSITY ALT 3400FT=
SPECI CYDL 260145Z AUTO 19003KT 150V240 9SM VCTS BKN075 BKN170 17/06
A2979 RMK LTNG DIST E SLP090 DENSITY ALT 3500FT=
METAR CYDL 260100Z AUTO VRB02KT 9SM BKN090 OVC120 18/06 A2981 RMK
LTNG DIST E SLP095 DENSITY ALT 3700FT=

*** REMARK        : Forecast period has ended; this was the last TAF issued
*** REMARQUE : La période de prévision est échue; ceci était le dernier TAF qui a été émis
TAF CYDL 252338Z 2600/2602 23005KT P6SM SCT060 SCT100 TEMPO 2600/2602
P6SM -SHRA BKN060 OVC100
RMK FCST BASED ON AUTO OBS. NXT FCST WILL BE ISSUED AT 261545Z=
Your time UTC time
Weather data provided by Environment Canada and NAV CANADA